sensor_id;sensor_type;location;lat;lon;timestamp;pressure;altitude;pressure_sealevel;temperature;humidity
40315;BME280;26021;45.640;11.302;2023-03-14T00:00:55;98198.44;;;9.72;100.00
40315;BME280;26021;45.640;11.302;2023-03-14T00:03:21;98169.28;;;9.56;100.00
40315;BME280;26021;45.640;11.302;2023-03-14T00:05:46;98165.31;;;9.52;100.00
40315;BME280;26021;45.640;11.302;2023-03-14T00:08:12;98200.00;;;9.81;100.00
40315;BME280;26021;45.640;11.302;2023-03-14T00:10:38;98198.53;;;9.79;100.00
40315;BME280;26021;45.640;11.302;2023-03-14T00:13:04;98196.91;;;9.48;100.00
40315;BME280;26021;45.640;11.302;2023-03-14T00:15:32;98201.69;;;9.68;100.00
40315;BME280;26021;45.640;11.302;2023-03-14T00:17:58;98193.38;;;9.63;100.00
40315;BME280;26021;45.640;11.302;2023-03-14T00:20:23;98195.41;;;9.61;100.00
40315;BME280;26021;45.640;11.302;2023-03-14T00:22:49;98183.00;;;9.68;100.00
40315;BME280;26021;45.640;11.302;2023-03-14T00:25:14;98177.09;;;9.57;100.00
40315;BME280;26021;45.640;11.302;2023-03-14T00:27:39;98167.53;;;9.48;100.00
40315;BME280;26021;45.640;11.302;2023-03-14T00:30:05;98167.78;;;9.53;100.00
40315;BME280;26021;45.640;11.302;2023-03-14T00:32:33;98106.75;;;9.14;100.00
40315;BME280;26021;45.640;11.302;2023-03-14T00:34:58;98161.91;;;9.58;100.00
40315;BME280;26021;45.640;11.302;2023-03-14T00:37:24;98169.19;;;9.49;100.00
40315;BME280;26021;45.640;11.302;2023-03-14T00:39:51;98170.16;;;9.63;100.00
40315;BME280;26021;45.640;11.302;2023-03-14T00:42:16;98144.75;;;9.82;100.00
40315;BME280;26021;45.640;11.302;2023-03-14T00:44:43;98137.78;;;9.51;100.00
40315;BME280;26021;45.640;11.302;2023-03-14T00:47:09;98136.31;;;9.49;100.00
40315;BME280;26021;45.640;11.302;2023-03-14T00:49:34;98138.44;;;9.53;100.00
40315;BME280;26021;45.640;11.302;2023-03-14T00:52:00;98093.13;;;9.24;100.00
40315;BME280;26021;45.640;11.302;2023-03-14T00:54:25;98128.41;;;9.55;100.00
40315;BME280;26021;45.640;11.302;2023-03-14T00:56:50;98115.88;;;9.71;100.00
40315;BME280;26021;45.640;11.302;2023-03-14T00:59:16;98113.66;;;9.60;100.00
40315;BME280;26021;45.640;11.302;2023-03-14T01:01:42;98093.28;;;9.37;100.00
40315;BME280;26021;45.640;11.302;2023-03-14T01:04:08;98097.00;;;9.57;100.00
40315;BME280;26021;45.640;11.302;2023-03-14T01:06:33;98083.31;;;9.46;100.00
40315;BME280;26021;45.640;11.302;2023-03-14T01:08:59;98043.34;;;9.31;100.00
40315;BME280;26021;45.640;11.302;2023-03-14T01:11:27;98070.53;;;9.41;100.00
40315;BME280;26021;45.640;11.302;2023-03-14T01:13:53;98072.31;;;9.34;100.00
40315;BME280;26021;45.640;11.302;2023-03-14T01:16:21;98057.94;;;9.35;100.00
40315;BME280;26021;45.640;11.302;2023-03-14T01:18:47;98062.16;;;9.44;100.00
40315;BME280;26021;45.640;11.302;2023-03-14T01:21:16;98039.38;;;9.27;100.00
40315;BME280;26021;45.640;11.302;2023-03-14T01:23:42;98057.47;;;9.46;100.00
40315;BME280;26021;45.640;11.302;2023-03-14T01:26:10;98042.91;;;9.49;100.00
40315;BME280;26021;45.640;11.302;2023-03-14T01:28:36;98043.03;;;9.41;100.00
40315;BME280;26021;45.640;11.302;2023-03-14T01:31:03;98046.25;;;9.36;100.00
40315;BME280;26021;45.640;11.302;2023-03-14T01:33:29;98039.72;;;9.39;100.00
40315;BME280;26021;45.640;11.302;2023-03-14T01:35:54;98041.19;;;9.41;100.00
40315;BME280;26021;45.640;11.302;2023-03-14T01:38:19;98044.88;;;9.40;100.00
40315;BME280;26021;45.640;11.302;2023-03-14T01:40:45;98048.75;;;9.38;100.00
40315;BME280;26021;45.640;11.302;2023-03-14T01:43:18;98047.66;;;9.32;100.00
40315;BME280;26021;45.640;11.302;2023-03-14T01:48:42;97991.78;;;9.09;100.00
40315;BME280;26021;45.640;11.302;2023-03-14T01:51:17;98026.94;;;9.34;100.00
40315;BME280;26021;45.640;11.302;2023-03-14T01:53:45;98013.34;;;9.29;100.00
40315;BME280;26021;45.640;11.302;2023-03-14T01:56:13;97962.19;;;9.04;100.00
40315;BME280;26021;45.640;11.302;2023-03-14T01:58:41;98011.94;;;9.33;100.00
40315;BME280;26021;45.640;11.302;2023-03-14T02:01:10;97995.69;;;9.28;100.00
40315;BME280;26021;45.640;11.302;2023-03-14T02:03:44;97986.59;;;9.44;100.00
40315;BME280;26021;45.640;11.302;2023-03-14T02:06:14;97959.97;;;9.29;100.00
40315;BME280;26021;45.640;11.302;2023-03-14T02:08:42;97959.09;;;9.43;100.00
40315;BME280;26021;45.640;11.302;2023-03-14T02:11:12;97967.84;;;9.59;100.00
40315;BME280;26021;45.640;11.302;2023-03-14T02:13:38;97973.19;;;9.59;100.00
40315;BME280;26021;45.640;11.302;2023-03-14T02:16:04;97957.88;;;9.46;100.00
40315;BME280;26021;45.640;11.302;2023-03-14T02:18:29;97951.66;;;9.39;100.00
40315;BME280;26021;45.640;11.302;2023-03-14T02:21:11;97958.06;;;9.44;100.00
40315;BME280;26021;45.640;11.302;2023-03-14T02:29:02;97949.78;;;9.61;100.00
40315;BME280;26021;45.640;11.302;2023-03-14T02:31:27;97950.81;;;9.60;100.00
40315;BME280;26021;45.640;11.302;2023-03-14T02:33:53;97890.47;;;9.37;100.00
40315;BME280;26021;45.640;11.302;2023-03-14T02:36:19;97950.69;;;9.46;100.00
40315;BME280;26021;45.640;11.302;2023-03-14T02:39:15;97952.34;;;9.69;100.00
40315;BME280;26021;45.640;11.302;2023-03-14T02:41:44;97948.72;;;9.55;100.00
40315;BME280;26021;45.640;11.302;2023-03-14T02:44:11;97925.09;;;9.31;100.00
40315;BME280;26021;45.640;11.302;2023-03-14T02:46:37;97942.56;;;9.54;100.00
40315;BME280;26021;45.640;11.302;2023-03-14T02:49:05;97945.84;;;9.56;100.00
40315;BME280;26021;45.640;11.302;2023-03-14T02:51:33;97899.41;;;9.51;100.00
40315;BME280;26021;45.640;11.302;2023-03-14T02:53:59;97929.41;;;9.53;100.00
40315;BME280;26021;45.640;11.302;2023-03-14T02:56:24;97933.78;;;9.39;100.00
40315;BME280;26021;45.640;11.302;2023-03-14T02:58:49;97944.00;;;9.57;100.00
40315;BME280;26021;45.640;11.302;2023-03-14T03:01:15;97941.78;;;9.61;100.00
40315;BME280;26021;45.640;11.302;2023-03-14T03:03:41;97893.81;;;9.46;100.00
40315;BME280;26021;45.640;11.302;2023-03-14T03:06:06;97928.03;;;9.64;100.00
40315;BME280;26021;45.640;11.302;2023-03-14T03:08:32;97940.97;;;9.60;100.00
40315;BME280;26021;45.640;11.302;2023-03-14T03:10:58;97936.88;;;9.64;100.00
40315;BME280;26021;45.640;11.302;2023-03-14T03:13:24;97914.97;;;9.47;100.00
40315;BME280;26021;45.640;11.302;2023-03-14T03:15:50;97885.72;;;9.61;100.00
40315;BME280;26021;45.640;11.302;2023-03-14T03:18:15;97942.06;;;9.44;100.00
40315;BME280;26021;45.640;11.302;2023-03-14T03:20:40;97936.78;;;9.30;100.00
40315;BME280;26021;45.640;11.302;2023-03-14T03:23:06;97899.50;;;9.15;100.00
40315;BME280;26021;45.640;11.302;2023-03-14T03:25:31;97883.56;;;9.21;100.00
40315;BME280;26021;45.640;11.302;2023-03-14T03:27:57;97891.19;;;9.24;100.00
40315;BME280;26021;45.640;11.302;2023-03-14T03:30:23;97883.81;;;9.27;100.00
40315;BME280;26021;45.640;11.302;2023-03-14T03:32:48;97829.91;;;9.10;100.00
40315;BME280;26021;45.640;11.302;2023-03-14T03:35:14;97892.19;;;9.23;100.00
40315;BME280;26021;45.640;11.302;2023-03-14T03:37:39;97884.00;;;9.25;100.00
40315;BME280;26021;45.640;11.302;2023-03-14T03:40:06;97880.28;;;9.47;100.00
40315;BME280;26021;45.640;11.302;2023-03-14T03:42:32;97853.88;;;9.59;100.00
40315;BME280;26021;45.640;11.302;2023-03-14T03:44:59;97853.88;;;9.59;100.00
40315;BME280;26021;45.640;11.302;2023-03-14T03:47:25;97854.38;;;9.41;100.00
40315;BME280;26021;45.640;11.302;2023-03-14T03:49:50;97837.81;;;9.52;100.00
40315;BME280;26021;45.640;11.302;2023-03-14T03:52:16;97841.94;;;9.55;100.00
40315;BME280;26021;45.640;11.302;2023-03-14T03:54:41;97839.72;;;9.59;100.00
40315;BME280;26021;45.640;11.302;2023-03-14T03:57:06;97818.94;;;9.26;100.00
40315;BME280;26021;45.640;11.302;2023-03-14T03:59:32;97782.47;;;9.33;100.00
40315;BME280;26021;45.640;11.302;2023-03-14T04:01:57;97827.13;;;9.52;100.00
40315;BME280;26021;45.640;11.302;2023-03-14T04:04:23;97772.81;;;9.32;100.00
40315;BME280;26021;45.640;11.302;2023-03-14T04:06:48;97810.88;;;9.47;100.00
40315;BME280;26021;45.640;11.302;2023-03-14T04:09:14;97826.19;;;9.32;100.00
40315;BME280;26021;45.640;11.302;2023-03-14T04:11:39;97823.50;;;9.32;100.00
40315;BME280;26021;45.640;11.302;2023-03-14T04:14:05;97793.66;;;9.22;100.00
40315;BME280;26021;45.640;11.302;2023-03-14T04:16:31;97800.66;;;9.51;100.00
40315;BME280;26021;45.640;11.302;2023-03-14T04:18:57;97760.84;;;9.21;100.00
40315;BME280;26021;45.640;11.302;2023-03-14T04:21:22;97792.88;;;9.56;100.00
40315;BME280;26021;45.640;11.302;2023-03-14T04:23:48;97810.84;;;9.41;100.00
40315;BME280;26021;45.640;11.302;2023-03-14T04:26:14;97797.53;;;9.47;100.00
40315;BME280;26021;45.640;11.302;2023-03-14T04:28:39;97782.34;;;9.48;100.00
40315;BME280;26021;45.640;11.302;2023-03-14T04:31:10;97784.44;;;9.52;100.00
40315;BME280;26021;45.640;11.302;2023-03-14T04:33:35;97750.56;;;9.18;100.00
40315;BME280;26021;45.640;11.302;2023-03-14T04:36:03;97598.94;;;8.32;100.00
40315;BME280;26021;45.640;11.302;2023-03-14T04:38:29;97776.78;;;9.43;100.00
40315;BME280;26021;45.640;11.302;2023-03-14T04:40:54;97748.75;;;9.26;100.00
40315;BME280;26021;45.640;11.302;2023-03-14T04:43:19;97745.78;;;9.42;100.00
40315;BME280;26021;45.640;11.302;2023-03-14T04:45:45;97726.06;;;9.43;100.00
40315;BME280;26021;45.640;11.302;2023-03-14T04:48:10;97729.88;;;9.62;100.00
40315;BME280;26021;45.640;11.302;2023-03-14T04:50:36;97736.72;;;9.71;100.00
40315;BME280;26021;45.640;11.302;2023-03-14T04:53:01;97737.34;;;9.73;100.00
40315;BME280;26021;45.640;11.302;2023-03-14T04:55:26;97735.63;;;9.65;100.00
40315;BME280;26021;45.640;11.302;2023-03-14T04:57:52;97711.34;;;9.53;100.00
40315;BME280;26021;45.640;11.302;2023-03-14T05:00:24;97715.06;;;9.59;100.00
40315;BME280;26021;45.640;11.302;2023-03-14T05:02:54;97711.31;;;9.47;100.00
40315;BME280;26021;45.640;11.302;2023-03-14T05:05:19;97709.63;;;9.39;100.00
40315;BME280;26021;45.640;11.302;2023-03-14T05:07:45;97696.09;;;9.41;100.00
40315;BME280;26021;45.640;11.302;2023-03-14T05:10:10;97689.53;;;9.43;100.00
40315;BME280;26021;45.640;11.302;2023-03-14T05:12:36;97679.94;;;9.55;100.00
40315;BME280;26021;45.640;11.302;2023-03-14T05:15:01;97657.56;;;9.56;100.00
40315;BME280;26021;45.640;11.302;2023-03-14T05:17:27;97670.91;;;9.56;100.00
40315;BME280;26021;45.640;11.302;2023-03-14T05:19:52;97661.53;;;9.67;100.00
40315;BME280;26021;45.640;11.302;2023-03-14T05:22:17;97664.97;;;9.61;100.00
40315;BME280;26021;45.640;11.302;2023-03-14T05:24:43;97667.41;;;9.56;100.00
40315;BME280;26021;45.640;11.302;2023-03-14T05:27:08;97666.66;;;9.69;100.00
40315;BME280;26021;45.640;11.302;2023-03-14T05:29:34;97657.28;;;9.86;100.00
40315;BME280;26021;45.640;11.302;2023-03-14T05:31:59;97650.91;;;9.80;100.00
40315;BME280;26021;45.640;11.302;2023-03-14T05:34:24;97639.06;;;9.55;100.00
40315;BME280;26021;45.640;11.302;2023-03-14T05:36:50;97613.38;;;9.47;100.00
40315;BME280;26021;45.640;11.302;2023-03-14T05:39:15;97585.59;;;9.29;100.00
40315;BME280;26021;45.640;11.302;2023-03-14T05:41:40;97619.16;;;9.57;100.00
40315;BME280;26021;45.640;11.302;2023-03-14T05:44:06;97502.59;;;8.97;100.00
40315;BME280;26021;45.640;11.302;2023-03-14T05:46:31;97587.28;;;9.43;100.00
40315;BME280;26021;45.640;11.302;2023-03-14T05:48:59;97576.31;;;9.11;100.00
40315;BME280;26021;45.640;11.302;2023-03-14T05:51:25;97554.47;;;8.95;100.00
40315;BME280;26021;45.640;11.302;2023-03-14T05:53:51;97549.88;;;9.23;100.00
40315;BME280;26021;45.640;11.302;2023-03-14T05:56:16;97572.31;;;9.48;100.00
40315;BME280;26021;45.640;11.302;2023-03-14T05:58:41;97536.72;;;9.15;100.00
40315;BME280;26021;45.640;11.302;2023-03-14T06:01:07;97605.47;;;9.67;100.00
40315;BME280;26021;45.640;11.302;2023-03-14T06:03:33;97644.13;;;9.84;100.00
40315;BME280;26021;45.640;11.302;2023-03-14T06:05:58;97660.72;;;9.73;100.00
40315;BME280;26021;45.640;11.302;2023-03-14T06:08:24;97661.44;;;9.54;100.00
40315;BME280;26021;45.640;11.302;2023-03-14T06:10:50;97620.50;;;9.27;100.00
40315;BME280;26021;45.640;11.302;2023-03-14T06:13:16;97672.16;;;9.61;100.00
40315;BME280;26021;45.640;11.302;2023-03-14T06:15:41;97626.22;;;9.24;100.00
40315;BME280;26021;45.640;11.302;2023-03-14T06:18:07;97668.03;;;9.17;100.00
40315;BME280;26021;45.640;11.302;2023-03-14T06:20:33;97680.31;;;9.11;100.00
40315;BME280;26021;45.640;11.302;2023-03-14T06:23:00;97680.88;;;9.00;100.00
40315;BME280;26021;45.640;11.302;2023-03-14T06:25:25;97637.16;;;8.95;100.00
40315;BME280;26021;45.640;11.302;2023-03-14T06:27:51;97646.63;;;9.04;100.00
40315;BME280;26021;45.640;11.302;2023-03-14T06:30:16;97656.13;;;9.13;100.00
40315;BME280;26021;45.640;11.302;2023-03-14T06:32:42;97666.28;;;8.96;100.00
40315;BME280;26021;45.640;11.302;2023-03-14T06:35:07;97654.84;;;9.02;100.00
40315;BME280;26021;45.640;11.302;2023-03-14T06:37:33;97654.44;;;9.05;100.00
40315;BME280;26021;45.640;11.302;2023-03-14T06:39:59;97658.13;;;9.04;100.00
40315;BME280;26021;45.640;11.302;2023-03-14T06:42:24;97651.81;;;9.12;100.00
40315;BME280;26021;45.640;11.302;2023-03-14T06:44:49;97647.97;;;9.21;100.00
40315;BME280;26021;45.640;11.302;2023-03-14T06:47:15;97648.69;;;9.43;100.00
40315;BME280;26021;45.640;11.302;2023-03-14T06:49:40;97633.53;;;9.09;100.00
40315;BME280;26021;45.640;11.302;2023-03-14T06:52:05;97642.56;;;9.08;100.00
40315;BME280;26021;45.640;11.302;2023-03-14T06:54:31;97648.13;;;9.13;100.00
40315;BME280;26021;45.640;11.302;2023-03-14T06:56:56;97634.34;;;9.09;100.00
40315;BME280;26021;45.640;11.302;2023-03-14T06:59:22;97649.47;;;8.96;100.00
40315;BME280;26021;45.640;11.302;2023-03-14T07:01:47;97610.22;;;8.89;100.00
40315;BME280;26021;45.640;11.302;2023-03-14T07:04:16;97615.53;;;9.17;100.00
40315;BME280;26021;45.640;11.302;2023-03-14T07:06:42;97611.00;;;9.18;100.00
40315;BME280;26021;45.640;11.302;2023-03-14T07:09:10;97612.72;;;9.32;100.00
40315;BME280;26021;45.640;11.302;2023-03-14T07:11:36;97564.25;;;8.87;100.00
40315;BME280;26021;45.640;11.302;2023-03-14T07:14:01;97611.78;;;9.12;100.00
40315;BME280;26021;45.640;11.302;2023-03-14T07:16:27;97581.78;;;8.97;100.00
40315;BME280;26021;45.640;11.302;2023-03-14T07:18:56;97631.81;;;8.95;100.00
40315;BME280;26021;45.640;11.302;2023-03-14T07:21:22;97636.34;;;9.01;100.00
40315;BME280;26021;45.640;11.302;2023-03-14T07:23:47;97628.41;;;9.07;100.00
40315;BME280;26021;45.640;11.302;2023-03-14T07:26:13;97589.44;;;8.78;100.00
40315;BME280;26021;45.640;11.302;2023-03-14T07:28:38;97617.31;;;8.76;100.00
40315;BME280;26021;45.640;11.302;2023-03-14T07:31:04;97610.91;;;8.70;100.00
40315;BME280;26021;45.640;11.302;2023-03-14T07:33:30;97574.84;;;8.74;100.00
40315;BME280;26021;45.640;11.302;2023-03-14T07:35:55;97602.69;;;8.93;100.00
40315;BME280;26021;45.640;11.302;2023-03-14T07:38:21;97565.84;;;8.75;100.00
40315;BME280;26021;45.640;11.302;2023-03-14T07:40:46;97606.88;;;8.81;100.00
40315;BME280;26021;45.640;11.302;2023-03-14T07:43:12;97610.81;;;8.85;100.00
40315;BME280;26021;45.640;11.302;2023-03-14T07:45:38;97606.44;;;8.77;100.00
40315;BME280;26021;45.640;11.302;2023-03-14T07:48:04;97593.97;;;8.84;100.00
40315;BME280;26021;45.640;11.302;2023-03-14T07:50:29;97586.91;;;8.98;100.00
40315;BME280;26021;45.640;11.302;2023-03-14T07:52:55;97570.50;;;9.01;100.00
40315;BME280;26021;45.640;11.302;2023-03-14T07:55:20;97477.03;;;8.34;100.00
40315;BME280;26021;45.640;11.302;2023-03-14T07:57:46;97553.72;;;8.73;100.00
40315;BME280;26021;45.640;11.302;2023-03-14T08:00:12;97585.50;;;9.02;100.00
40315;BME280;26021;45.640;11.302;2023-03-14T08:02:40;97603.59;;;9.13;100.00
40315;BME280;26021;45.640;11.302;2023-03-14T08:05:05;97603.00;;;9.18;100.00
40315;BME280;26021;45.640;11.302;2023-03-14T08:07:31;97470.88;;;8.33;100.00
40315;BME280;26021;45.640;11.302;2023-03-14T08:09:56;97594.31;;;9.03;100.00
40315;BME280;26021;45.640;11.302;2023-03-14T08:12:22;97609.47;;;8.96;100.00
40315;BME280;26021;45.640;11.302;2023-03-14T08:14:47;97611.50;;;8.94;100.00
40315;BME280;26021;45.640;11.302;2023-03-14T08:17:12;97584.97;;;8.85;100.00
40315;BME280;26021;45.640;11.302;2023-03-14T08:19:38;97531.50;;;8.59;100.00
40315;BME280;26021;45.640;11.302;2023-03-14T08:22:04;97576.25;;;8.98;100.00
40315;BME280;26021;45.640;11.302;2023-03-14T08:24:29;97586.22;;;9.31;100.00
40315;BME280;26021;45.640;11.302;2023-03-14T08:26:55;97581.28;;;9.28;100.00
40315;BME280;26021;45.640;11.302;2023-03-14T08:29:20;97574.06;;;9.15;100.00
40315;BME280;26021;45.640;11.302;2023-03-14T08:31:46;97525.56;;;8.98;100.00
40315;BME280;26021;45.640;11.302;2023-03-14T08:34:11;97564.94;;;9.44;100.00
40315;BME280;26021;45.640;11.302;2023-03-14T08:36:37;97513.16;;;9.25;100.00
40315;BME280;26021;45.640;11.302;2023-03-14T08:39:02;97554.47;;;9.49;100.00
40315;BME280;26021;45.640;11.302;2023-03-14T08:41:29;97533.06;;;9.29;100.00
40315;BME280;26021;45.640;11.302;2023-03-14T08:43:54;97551.13;;;9.34;100.00
40315;BME280;26021;45.640;11.302;2023-03-14T08:46:20;97547.88;;;9.38;100.00
40315;BME280;26021;45.640;11.302;2023-03-14T08:48:45;97549.91;;;9.36;100.00
40315;BME280;26021;45.640;11.302;2023-03-14T08:51:12;97541.13;;;9.55;100.00
40315;BME280;26021;45.640;11.302;2023-03-14T08:53:39;97555.59;;;9.87;100.00
40315;BME280;26021;45.640;11.302;2023-03-14T08:56:06;97574.63;;;9.65;100.00
40315;BME280;26021;45.640;11.302;2023-03-14T08:58:32;97513.16;;;8.77;100.00
40315;BME280;26021;45.640;11.302;2023-03-14T09:00:58;97559.31;;;9.26;100.00
40315;BME280;26021;45.640;11.302;2023-03-14T09:03:24;97458.94;;;8.64;100.00
40315;BME280;26021;45.640;11.302;2023-03-14T09:05:50;97528.38;;;8.90;100.00
40315;BME280;26021;45.640;11.302;2023-03-14T09:08:16;97529.66;;;8.94;100.00
40315;BME280;26021;45.640;11.302;2023-03-14T09:10:42;97527.22;;;8.99;100.00
40315;BME280;26021;45.640;11.302;2023-03-14T09:13:07;97556.84;;;9.17;100.00
40315;BME280;26021;45.640;11.302;2023-03-14T09:15:33;97559.53;;;9.31;100.00
40315;BME280;26021;45.640;11.302;2023-03-14T09:17:58;97545.75;;;9.14;100.00
40315;BME280;26021;45.640;11.302;2023-03-14T09:20:24;97516.22;;;8.81;100.00
40315;BME280;26021;45.640;11.302;2023-03-14T09:22:49;97505.13;;;8.71;100.00
40315;BME280;26021;45.640;11.302;2023-03-14T09:25:15;97557.22;;;9.14;100.00
40315;BME280;26021;45.640;11.302;2023-03-14T09:27:40;97556.63;;;9.19;100.00
40315;BME280;26021;45.640;11.302;2023-03-14T09:30:07;97488.75;;;8.80;100.00
40315;BME280;26021;45.640;11.302;2023-03-14T09:32:33;97543.53;;;9.24;100.00
40315;BME280;26021;45.640;11.302;2023-03-14T09:34:58;97535.44;;;9.72;100.00
40315;BME280;26021;45.640;11.302;2023-03-14T09:37:24;97545.72;;;9.81;100.00
40315;BME280;26021;45.640;11.302;2023-03-14T09:39:49;97495.13;;;9.47;100.00
40315;BME280;26021;45.640;11.302;2023-03-14T09:42:18;97546.13;;;9.78;100.00
40315;BME280;26021;45.640;11.302;2023-03-14T09:44:57;97551.81;;;9.55;100.00
40315;BME280;26021;45.640;11.302;2023-03-14T09:47:25;97548.72;;;9.52;100.00
40315;BME280;26021;45.640;11.302;2023-03-14T09:49:51;97555.81;;;9.93;100.00
40315;BME280;26021;45.640;11.302;2023-03-14T09:52:20;97558.06;;;9.82;100.00
40315;BME280;26021;45.640;11.302;2023-03-14T09:57:25;97561.53;;;9.83;100.00
40315;BME280;26021;45.640;11.302;2023-03-14T09:59:54;97407.84;;;9.14;100.00
40315;BME280;26021;45.640;11.302;2023-03-14T10:02:24;97552.69;;;9.69;100.00
40315;BME280;26021;45.640;11.302;2023-03-14T10:04:52;97556.81;;;9.72;100.00
40315;BME280;26021;45.640;11.302;2023-03-14T10:07:29;97497.16;;;9.38;100.00
40315;BME280;26021;45.640;11.302;2023-03-14T10:09:55;97537.94;;;9.93;100.00
40315;BME280;26021;45.640;11.302;2023-03-14T10:12:32;97377.63;;;8.87;100.00
40315;BME280;26021;45.640;11.302;2023-03-14T10:15:03;97513.28;;;9.84;100.00
40315;BME280;26021;45.640;11.302;2023-03-14T10:17:28;97478.50;;;9.38;100.00
40315;BME280;26021;45.640;11.302;2023-03-14T10:19:59;97350.69;;;8.56;100.00
40315;BME280;26021;45.640;11.302;2023-03-14T10:22:29;97526.00;;;9.76;100.00
40315;BME280;26021;45.640;11.302;2023-03-14T10:25:04;97537.69;;;9.68;100.00
40315;BME280;26021;45.640;11.302;2023-03-14T10:27:34;97549.56;;;9.59;100.00
40315;BME280;26021;45.640;11.302;2023-03-14T10:30:07;97548.59;;;9.73;100.00
40315;BME280;26021;45.640;11.302;2023-03-14T10:32:35;97504.03;;;9.80;100.00
40315;BME280;26021;45.640;11.302;2023-03-14T10:37:58;97542.66;;;9.91;100.00
40315;BME280;26021;45.640;11.302;2023-03-14T10:40:47;97465.59;;;9.55;100.00
40315;BME280;26021;45.640;11.302;2023-03-14T10:43:19;97521.09;;;9.86;100.00
40315;BME280;26021;45.640;11.302;2023-03-14T10:46:11;97517.38;;;9.80;100.00
40315;BME280;26021;45.640;11.302;2023-03-14T10:48:38;97500.94;;;9.70;100.00
40315;BME280;26021;45.640;11.302;2023-03-14T10:56:20;97525.81;;;9.91;100.00
40315;BME280;26021;45.640;11.302;2023-03-14T10:58:53;97488.16;;;9.46;100.00
40315;BME280;26021;45.640;11.302;2023-03-14T11:03:59;97477.50;;;9.59;100.00
40315;BME280;26021;45.640;11.302;2023-03-14T11:06:43;97510.00;;;9.89;100.00
40315;BME280;26021;45.640;11.302;2023-03-14T11:11:46;97509.56;;;10.05;100.00
40315;BME280;26021;45.640;11.302;2023-03-14T11:17:00;97499.72;;;10.12;100.00
40315;BME280;26021;45.640;11.302;2023-03-14T11:21:59;97493.97;;;9.89;100.00
40315;BME280;26021;45.640;11.302;2023-03-14T11:27:43;97475.25;;;10.29;100.00
40315;BME280;26021;45.640;11.302;2023-03-14T11:33:10;97459.81;;;10.37;100.00
40315;BME280;26021;45.640;11.302;2023-03-14T11:38:48;97449.75;;;10.46;100.00
40315;BME280;26021;45.640;11.302;2023-03-14T11:41:20;97455.06;;;10.59;100.00
40315;BME280;26021;45.640;11.302;2023-03-14T11:43:54;97445.00;;;10.55;100.00
40315;BME280;26021;45.640;11.302;2023-03-14T11:46:29;97449.75;;;10.53;100.00
40315;BME280;26021;45.640;11.302;2023-03-14T11:49:14;97448.56;;;10.87;100.00
40315;BME280;26021;45.640;11.302;2023-03-14T11:51:47;97454.31;;;10.90;100.00
40315;BME280;26021;45.640;11.302;2023-03-14T11:54:24;97444.72;;;11.21;100.00
40315;BME280;26021;45.640;11.302;2023-03-14T11:56:58;97405.22;;;10.78;100.00
40315;BME280;26021;45.640;11.302;2023-03-14T12:13:04;97416.72;;;11.23;100.00
40315;BME280;26021;45.640;11.302;2023-03-14T12:15:30;97384.88;;;11.08;100.00
40315;BME280;26021;45.640;11.302;2023-03-14T12:17:55;97414.03;;;11.23;100.00
40315;BME280;26021;45.640;11.302;2023-03-14T12:20:23;97409.91;;;11.27;100.00
40315;BME280;26021;45.640;11.302;2023-03-14T12:23:02;97365.81;;;10.98;100.00
40315;BME280;26021;45.640;11.302;2023-03-14T12:25:30;97392.50;;;11.05;100.00
40315;BME280;26021;45.640;11.302;2023-03-14T12:30:28;97389.41;;;11.08;100.00
40315;BME280;26021;45.640;11.302;2023-03-14T12:43:45;97373.91;;;11.48;100.00
40315;BME280;26021;45.640;11.302;2023-03-14T12:48:50;97315.28;;;11.40;100.00
40315;BME280;26021;45.640;11.302;2023-03-14T12:51:20;97315.13;;;11.35;100.00
40315;BME280;26021;45.640;11.302;2023-03-14T13:02:10;97352.06;;;11.51;100.00
40315;BME280;26021;45.640;11.302;2023-03-14T13:04:49;97294.16;;;11.00;100.00
40315;BME280;26021;45.640;11.302;2023-03-14T13:08:08;97348.22;;;11.40;100.00
40315;BME280;26021;45.640;11.302;2023-03-14T13:10:23;97341.56;;;11.50;100.00
40315;BME280;26021;45.640;11.302;2023-03-14T13:12:54;97344.91;;;11.45;100.00
40315;BME280;26021;45.640;11.302;2023-03-14T13:15:46;97322.44;;;11.21;100.00
40315;BME280;26021;45.640;11.302;2023-03-14T13:18:17;97326.59;;;11.17;100.00
40315;BME280;26021;45.640;11.302;2023-03-14T13:23:26;97330.81;;;10.68;100.00
40315;BME280;26021;45.640;11.302;2023-03-14T13:25:52;97337.38;;;11.04;100.00
40315;BME280;26021;45.640;11.302;2023-03-14T13:28:18;97327.19;;;11.19;100.00
40315;BME280;26021;45.640;11.302;2023-03-14T13:30:46;97319.63;;;11.09;100.00
40315;BME280;26021;45.640;11.302;2023-03-14T13:33:14;97329.38;;;10.97;100.00
40315;BME280;26021;45.640;11.302;2023-03-14T13:35:46;97326.19;;;11.13;100.00
40315;BME280;26021;45.640;11.302;2023-03-14T13:38:21;97316.28;;;11.21;100.00
40315;BME280;26021;45.640;11.302;2023-03-14T13:40:49;97285.94;;;11.02;100.00
40315;BME280;26021;45.640;11.302;2023-03-14T13:45:52;97309.88;;;11.46;100.00
40315;BME280;26021;45.640;11.302;2023-03-14T13:48:19;97285.03;;;11.39;100.00
40315;BME280;26021;45.640;11.302;2023-03-14T13:50:51;97297.03;;;11.73;100.00
40315;BME280;26021;45.640;11.302;2023-03-14T13:53:18;97301.53;;;11.80;100.00
40315;BME280;26021;45.640;11.302;2023-03-14T13:55:44;97305.91;;;11.74;100.00
40315;BME280;26021;45.640;11.302;2023-03-14T13:58:19;97281.28;;;11.65;100.00
40315;BME280;26021;45.640;11.302;2023-03-14T14:00:53;97298.38;;;11.89;100.00
40315;BME280;26021;45.640;11.302;2023-03-14T14:03:19;97298.31;;;11.71;100.00
40315;BME280;26021;45.640;11.302;2023-03-14T14:05:45;97231.28;;;11.59;100.00
40315;BME280;26021;45.640;11.302;2023-03-14T14:08:12;97287.38;;;11.97;100.00
40315;BME280;26021;45.640;11.302;2023-03-14T14:10:37;97285.13;;;11.94;100.00